Time;durP1;ratioP1;P1;durP2;ratioP2;P2;SDS_P1;SDS_P2;PMS_P1;PMS_P2;Temp;Humidity;BMP_temperature;BMP_pressure;BME280_temperature;BME280_humidity;BME280_pressure;Samples;Min_cycle;Max_cycle;Signal;HPM_P1;HPM_P2
2022/07/26 00:01:40;;;;;;;9.90;3.78;;;15.30;96.10;;;;;;5019282;28;20025;-71
2022/07/26 00:04:06;;;;;;;12.20;4.38;;;15.30;96.10;;;;;;5027119;28;20381;-71
2022/07/26 00:06:32;;;;;;;12.23;3.50;;;15.30;96.00;;;;;;5029218;28;20515;-71
2022/07/26 00:08:58;;;;;;;9.50;3.30;;;15.30;96.00;;;;;;5027652;28;20026;-71
2022/07/26 00:11:24;;;;;;;14.80;3.72;;;15.30;96.10;;;;;;5031127;28;20027;-71
2022/07/26 00:13:50;;;;;;;13.25;4.07;;;15.30;96.10;;;;;;5030192;28;20097;-71
2022/07/26 00:16:15;;;;;;;11.60;3.70;;;15.30;96.20;;;;;;5030803;28;20484;-71
2022/07/26 00:18:41;;;;;;;11.15;4.00;;;15.30;96.20;;;;;;5025868;28;20496;-71
2022/07/26 00:21:07;;;;;;;12.85;4.18;;;15.40;96.10;;;;;;5028595;28;20041;-71
2022/07/26 00:23:32;;;;;;;8.18;3.15;;;15.40;96.10;;;;;;5026775;28;20079;-71
2022/07/26 00:25:58;;;;;;;10.73;4.03;;;15.50;95.90;;;;;;5023684;28;20029;-71
2022/07/26 00:28:23;;;;;;;10.43;3.65;;;15.50;95.70;;;;;;5029519;28;20028;-71
2022/07/26 00:30:49;;;;;;;10.15;3.30;;;15.50;95.40;;;;;;5030971;28;20056;-71
2022/07/26 00:33:15;;;;;;;10.45;3.60;;;15.50;95.40;;;;;;5029410;28;20037;-71
2022/07/26 00:35:40;;;;;;;10.85;3.63;;;15.50;95.40;;;;;;5030254;28;20469;-71
2022/07/26 00:38:06;;;;;;;10.82;3.03;;;15.50;95.20;;;;;;5018053;28;20571;-71
2022/07/26 00:40:32;;;;;;;8.32;3.20;;;15.50;94.90;;;;;;5026947;28;20048;-71
2022/07/26 00:42:57;;;;;;;12.63;3.65;;;15.50;95.00;;;;;;5028243;28;20505;-71
2022/07/26 00:45:23;;;;;;;9.35;3.38;;;15.50;95.00;;;;;;5025851;28;20136;-71
2022/07/26 00:47:49;;;;;;;12.82;4.25;;;15.40;95.10;;;;;;5028323;28;20026;-71
2022/07/26 00:50:16;;;;;;;15.40;3.63;;;15.40;95.20;;;;;;5029265;28;20030;-71
2022/07/26 00:52:46;;;;;;;12.60;3.85;;;15.40;95.20;;;;;;5025706;28;20326;-71
2022/07/26 00:55:12;;;;;;;7.32;3.10;;;15.50;95.30;;;;;;5026108;28;20485;-71
2022/07/26 00:57:39;;;;;;;7.78;3.65;;;15.50;95.40;;;;;;5026556;28;20041;-71
2022/07/26 01:00:08;;;;;;;7.15;3.17;;;15.50;95.20;;;;;;5031553;28;20524;-71
2022/07/26 01:02:34;;;;;;;12.10;3.67;;;15.60;95.20;;;;;;5027168;28;20420;-71
2022/07/26 01:05:00;;;;;;;6.88;3.45;;;15.60;95.20;;;;;;5031498;28;20025;-71
2022/07/26 01:07:25;;;;;;;11.30;3.47;;;15.60;95.30;;;;;;5030257;28;20390;-71
2022/07/26 01:09:51;;;;;;;10.77;3.55;;;15.60;95.20;;;;;;5030161;28;20033;-71
2022/07/26 01:12:17;;;;;;;8.48;3.70;;;15.60;95.10;;;;;;5030619;28;20083;-71
2022/07/26 01:14:43;;;;;;;11.70;3.30;;;15.70;95.10;;;;;;5030972;28;20026;-71
2022/07/26 01:17:09;;;;;;;14.20;3.80;;;15.60;95.20;;;;;;5028946;28;20067;-71
2022/07/26 01:19:35;;;;;;;10.48;3.38;;;15.60;95.20;;;;;;5026663;28;20037;-71
2022/07/26 01:22:00;;;;;;;9.93;3.35;;;15.70;95.20;;;;;;5029875;28;20116;-71
2022/07/26 01:24:26;;;;;;;5.20;2.88;;;15.60;95.20;;;;;;5030207;28;20556;-71
2022/07/26 01:26:51;;;;;;;9.10;3.38;;;15.60;95.10;;;;;;5028078;28;20029;-71
2022/07/26 01:29:17;;;;;;;7.95;3.15;;;15.60;95.00;;;;;;5025514;28;20397;-71
2022/07/26 01:31:42;;;;;;;11.18;2.92;;;15.50;95.10;;;;;;5022417;28;20083;-71
2022/07/26 01:34:08;;;;;;;8.38;3.20;;;15.50;94.90;;;;;;5029280;28;20041;-71
2022/07/26 01:36:34;;;;;;;7.30;3.03;;;15.40;95.00;;;;;;5028960;28;20435;-71
2022/07/26 01:38:59;;;;;;;7.63;3.40;;;15.30;95.20;;;;;;5030342;28;20030;-71
2022/07/26 01:41:25;;;;;;;8.73;3.00;;;15.30;95.30;;;;;;5027062;28;20387;-71
2022/07/26 01:43:50;;;;;;;7.20;2.75;;;15.30;95.40;;;;;;5024538;28;20099;-71
2022/07/26 01:53:00;;;;;;;8.55;2.75;;;15.50;95.40;;;;;;5026983;28;20091;-71
2022/07/26 01:55:25;;;;;;;9.40;3.60;;;15.50;95.40;;;;;;5030547;28;20025;-71
2022/07/26 01:57:52;;;;;;;10.07;3.33;;;15.50;95.50;;;;;;5026254;28;20025;-71
2022/07/26 02:00:17;;;;;;;9.85;2.95;;;15.50;95.50;;;;;;5031018;28;20536;-71
2022/07/26 02:02:43;;;;;;;14.30;3.40;;;15.50;95.60;;;;;;5027871;28;20159;-71
2022/07/26 02:05:09;;;;;;;12.88;3.47;;;15.50;95.70;;;;;;5029684;28;20037;-71
2022/07/26 02:07:39;;;;;;;8.30;3.25;;;15.50;95.70;;;;;;5029174;28;20037;-71
2022/07/26 02:10:06;;;;;;;9.77;3.17;;;15.60;95.80;;;;;;5028514;28;20146;-71
2022/07/26 02:12:32;;;;;;;7.65;2.83;;;15.50;95.70;;;;;;5027753;28;20046;-71
2022/07/26 02:14:57;;;;;;;14.95;3.50;;;15.60;95.70;;;;;;5031120;28;20476;-71
2022/07/26 02:17:23;;;;;;;14.27;3.10;;;15.60;95.70;;;;;;5027547;28;20416;-71
2022/07/26 02:19:49;;;;;;;12.98;3.40;;;15.70;95.70;;;;;;5030404;28;20496;-71
2022/07/26 02:22:14;;;;;;;9.82;2.80;;;15.70;95.60;;;;;;5029205;28;20554;-71
2022/07/26 02:24:40;;;;;;;11.23;3.22;;;15.70;95.60;;;;;;5030790;28;20025;-71
2022/07/26 02:27:06;;;;;;;12.35;2.97;;;15.60;95.70;;;;;;5026593;28;20032;-71
2022/07/26 02:29:32;;;;;;;12.45;3.10;;;15.60;95.60;;;;;;5028259;28;20407;-71
2022/07/26 02:31:58;;;;;;;17.58;3.53;;;15.60;95.70;;;;;;5017919;28;20033;-71
2022/07/26 02:34:23;;;;;;;15.98;3.47;;;15.60;95.80;;;;;;5029408;28;20021;-71
2022/07/26 02:36:49;;;;;;;9.55;2.97;;;15.60;95.80;;;;;;5029137;28;20437;-71
2022/07/26 02:39:15;;;;;;;12.70;3.60;;;15.70;95.90;;;;;;5030172;28;20397;-71
2022/07/26 02:41:40;;;;;;;10.68;3.05;;;15.80;95.70;;;;;;5027010;28;20026;-71
2022/07/26 02:44:07;;;;;;;11.40;2.75;;;15.80;95.60;;;;;;5028092;28;20108;-71
2022/07/26 02:46:33;;;;;;;9.50;2.53;;;15.80;95.60;;;;;;5028378;28;20594;-71
2022/07/26 02:48:59;;;;;;;9.93;2.60;;;15.90;95.50;;;;;;5026891;28;20443;-71
2022/07/26 02:51:25;;;;;;;11.52;2.72;;;15.90;95.40;;;;;;5029925;28;20108;-71
2022/07/26 02:53:52;;;;;;;13.30;2.47;;;15.90;95.40;;;;;;5028577;28;20125;-71
2022/07/26 02:56:18;;;;;;;6.97;2.72;;;16.00;95.40;;;;;;5027026;28;20060;-71
2022/07/26 02:58:44;;;;;;;14.43;2.72;;;16.00;95.30;;;;;;5028970;28;20033;-71
2022/07/26 03:01:09;;;;;;;13.68;3.00;;;16.00;95.30;;;;;;5024601;28;20347;-71
2022/07/26 03:03:35;;;;;;;9.25;2.72;;;16.00;95.40;;;;;;5025518;28;20068;-71
2022/07/26 03:06:00;;;;;;;12.23;2.55;;;16.00;95.40;;;;;;5029345;28;20108;-71
2022/07/26 03:08:26;;;;;;;11.80;2.70;;;16.00;95.40;;;;;;5027376;28;20363;-71
2022/07/26 03:10:51;;;;;;;8.63;2.38;;;15.90;95.50;;;;;;5029820;28;20424;-71
2022/07/26 03:13:17;;;;;;;11.05;2.70;;;15.90;95.60;;;;;;5029775;28;20048;-71
2022/07/26 03:15:42;;;;;;;12.23;2.85;;;15.80;95.70;;;;;;5032192;28;20040;-71
2022/07/26 03:18:08;;;;;;;10.90;2.97;;;15.80;95.80;;;;;;5029234;28;20417;-71
2022/07/26 03:20:33;;;;;;;7.25;2.67;;;15.70;95.90;;;;;;5031138;28;20116;-71
2022/07/26 03:22:59;;;;;;;9.32;3.03;;;15.70;96.10;;;;;;5031792;28;20511;-71
2022/07/26 03:25:24;;;;;;;11.48;3.25;;;15.70;96.20;;;;;;5031201;28;20458;-71
2022/07/26 03:27:52;;;;;;;14.70;3.05;;;15.70;96.10;;;;;;5032792;28;20030;-71
2022/07/26 03:30:18;;;;;;;12.90;3.45;;;15.70;96.30;;;;;;5032190;28;20025;-71
2022/07/26 03:32:44;;;;;;;11.15;3.40;;;15.70;96.30;;;;;;5029478;28;20033;-71
2022/07/26 03:35:09;;;;;;;8.68;3.05;;;15.70;96.40;;;;;;5031501;28;20057;-71
2022/07/26 03:37:35;;;;;;;10.52;3.28;;;15.70;96.50;;;;;;5032098;28;20074;-71
2022/07/26 03:40:00;;;;;;;12.13;3.50;;;15.80;96.50;;;;;;5033259;28;20030;-71
2022/07/26 03:42:25;;;;;;;13.23;3.08;;;15.80;96.50;;;;;;5032396;28;20052;-71
2022/07/26 03:44:51;;;;;;;11.07;3.50;;;15.80;96.50;;;;;;5033456;28;20030;-71
2022/07/26 03:47:16;;;;;;;15.35;3.70;;;15.90;96.60;;;;;;5029085;28;20471;-71
2022/07/26 03:49:42;;;;;;;9.20;3.10;;;15.90;96.60;;;;;;5031628;28;20029;-71
2022/07/26 03:52:09;;;;;;;18.27;4.00;;;15.90;96.60;;;;;;5029018;28;20454;-71
2022/07/26 03:54:35;;;;;;;9.60;3.80;;;16.00;96.60;;;;;;5032632;28;20147;-71
2022/07/26 03:57:01;;;;;;;11.23;3.90;;;16.00;96.60;;;;;;5031065;28;20021;-71
2022/07/26 03:59:26;;;;;;;17.80;4.28;;;16.10;96.50;;;;;;5032418;28;20033;-71
2022/07/26 04:01:52;;;;;;;15.10;4.25;;;16.10;96.40;;;;;;5025410;28;20037;-71
2022/07/26 04:04:17;;;;;;;11.90;3.63;;;16.20;96.30;;;;;;5031925;28;20349;-71
2022/07/26 04:06:45;;;;;;;13.40;3.83;;;16.30;96.20;;;;;;5031817;28;20021;-71
2022/07/26 04:09:11;;;;;;;13.77;4.45;;;16.30;96.20;;;;;;5030125;28;20022;-71
2022/07/26 04:11:38;;;;;;;17.10;4.57;;;16.40;96.20;;;;;;5032021;28;20033;-71
2022/07/26 04:14:04;;;;;;;18.80;5.05;;;16.50;96.10;;;;;;5030946;28;20021;-71
2022/07/26 04:16:30;;;;;;;12.55;4.60;;;16.50;95.90;;;;;;5031313;28;20132;-71
2022/07/26 04:18:55;;;;;;;13.57;5.13;;;16.60;95.90;;;;;;5030273;28;20447;-70
2022/07/26 04:21:21;;;;;;;14.98;4.80;;;16.60;95.80;;;;;;5032264;28;20377;-70
2022/07/26 04:23:47;;;;;;;16.35;4.30;;;16.70;95.70;;;;;;5031251;28;20030;-70
2022/07/26 04:26:13;;;;;;;12.13;4.30;;;16.70;95.40;;;;;;5027444;28;20033;-69
2022/07/26 04:28:39;;;;;;;12.73;3.67;;;16.70;95.30;;;;;;5031265;28;20052;-69
2022/07/26 04:31:05;;;;;;;17.30;4.07;;;16.80;95.00;;;;;;5031845;28;20056;-69
2022/07/26 04:33:31;;;;;;;10.98;3.45;;;16.80;94.90;;;;;;5025064;28;20081;-69
2022/07/26 04:35:57;;;;;;;7.20;3.10;;;16.90;94.80;;;;;;5029969;28;20103;-69
2022/07/26 04:38:22;;;;;;;13.02;3.95;;;16.90;94.70;;;;;;5031546;28;20053;-69
2022/07/26 04:40:49;;;;;;;11.35;3.20;;;16.90;94.80;;;;;;5031465;28;20034;-70
2022/07/26 04:43:15;;;;;;;10.40;3.15;;;16.90;94.80;;;;;;5028394;28;20427;-69
2022/07/26 04:45:40;;;;;;;11.38;3.20;;;16.90;94.70;;;;;;5032186;28;20029;-69
2022/07/26 04:48:06;;;;;;;11.75;3.17;;;16.90;94.70;;;;;;5027666;28;20030;-69
2022/07/26 04:50:32;;;;;;;7.63;2.63;;;16.90;94.70;;;;;;5031899;28;20086;-69
2022/07/26 04:52:57;;;;;;;10.68;3.10;;;17.00;94.70;;;;;;5029677;28;20106;-69
2022/07/26 04:55:23;;;;;;;15.60;3.50;;;17.00;94.70;;;;;;5028873;28;20400;-69
2022/07/26 04:57:49;;;;;;;9.85;2.65;;;17.00;94.70;;;;;;5029011;28;20048;-69
2022/07/26 05:00:20;;;;;;;12.88;3.05;;;17.00;94.60;;;;;;5028499;28;20034;-69
2022/07/26 05:02:45;;;;;;;9.65;3.00;;;17.00;94.40;;;;;;5029095;28;20025;-69
2022/07/26 05:05:11;;;;;;;11.52;3.33;;;17.00;94.20;;;;;;5031440;28;20121;-69
2022/07/26 05:07:46;;;;;;;15.10;3.50;;;17.00;94.10;;;;;;5029433;28;20038;-69
2022/07/26 05:10:12;;;;;;;14.13;3.22;;;17.10;94.20;;;;;;5031635;28;20034;-69
2022/07/26 05:12:38;;;;;;;10.45;3.00;;;17.10;93.70;;;;;;5030765;28;20384;-69
2022/07/26 05:15:04;;;;;;;9.43;3.13;;;17.00;93.60;;;;;;5031608;28;20151;-69
2022/07/26 05:17:30;;;;;;;12.15;3.58;;;17.10;93.50;;;;;;5025207;28;20030;-69
2022/07/26 05:19:56;;;;;;;9.48;2.75;;;17.20;93.60;;;;;;5031773;28;20022;-69
2022/07/26 05:22:22;;;;;;;12.70;3.45;;;17.20;93.40;;;;;;5030197;28;20049;-69
2022/07/26 05:24:47;;;;;;;5.38;2.63;;;17.30;93.20;;;;;;5030201;28;20025;-69
2022/07/26 05:27:13;;;;;;;10.35;3.13;;;17.30;93.20;;;;;;5029722;28;20033;-69
2022/07/26 05:29:38;;;;;;;19.40;3.25;;;17.30;93.30;;;;;;5031330;28;20017;-69
2022/07/26 05:32:04;;;;;;;7.43;2.83;;;17.40;93.20;;;;;;5028101;28;21898;-69
2022/07/26 05:34:30;;;;;;;12.50;3.58;;;17.50;92.90;;;;;;5021529;28;20144;-69
2022/07/26 05:36:55;;;;;;;12.68;3.28;;;17.60;92.80;;;;;;5029783;28;20390;-69
2022/07/26 05:39:21;;;;;;;9.80;3.13;;;17.70;92.90;;;;;;5030786;28;20048;-69
2022/07/26 05:41:46;;;;;;;13.75;3.90;;;17.70;92.50;;;;;;5030227;28;20591;-69
2022/07/26 05:44:12;;;;;;;11.82;2.90;;;17.80;92.70;;;;;;5031000;28;20021;-69
2022/07/26 05:46:37;;;;;;;13.32;3.40;;;17.80;92.60;;;;;;5028411;28;20036;-69
2022/07/26 05:49:04;;;;;;;14.57;3.42;;;17.80;92.40;;;;;;5028004;28;20025;-69
2022/07/26 05:51:31;;;;;;;14.00;2.95;;;17.80;92.30;;;;;;5027102;28;20034;-69
2022/07/26 05:53:56;;;;;;;15.23;4.10;;;17.90;92.30;;;;;;5031083;28;20060;-69
2022/07/26 05:56:22;;;;;;;12.57;3.17;;;17.80;92.00;;;;;;5025543;28;20063;-69
2022/07/26 05:58:47;;;;;;;14.38;3.42;;;17.90;92.20;;;;;;5030609;28;20385;-69
2022/07/26 06:01:13;;;;;;;9.20;3.30;;;17.80;92.30;;;;;;5030207;28;20033;-69
2022/07/26 06:03:38;;;;;;;14.75;3.63;;;17.70;92.70;;;;;;5029325;28;20057;-69
2022/07/26 06:06:04;;;;;;;11.27;3.65;;;17.60;93.10;;;;;;5029738;28;20104;-69
2022/07/26 06:08:30;;;;;;;10.18;3.40;;;17.50;94.10;;;;;;5027249;28;20396;-69
2022/07/26 06:10:55;;;;;;;5.90;2.25;;;17.00;96.30;;;;;;5029208;28;20045;-69
2022/07/26 06:13:21;;;;;;;8.85;2.72;;;16.60;97.00;;;;;;5019345;28;20397;-69
2022/07/26 06:15:47;;;;;;;4.40;2.63;;;16.50;97.60;;;;;;5017273;28;20275;-69
2022/07/26 06:18:13;;;;;;;3.85;2.22;;;16.50;98.00;;;;;;5024714;28;20022;-69
2022/07/26 06:20:40;;;;;;;5.35;2.42;;;16.40;98.00;;;;;;5020628;28;20064;-69
2022/07/26 06:23:06;;;;;;;5.35;2.35;;;16.40;98.10;;;;;;5016160;28;20108;-69
2022/07/26 06:25:32;;;;;;;11.70;2.60;;;16.50;98.10;;;;;;5025530;28;20211;-69
2022/07/26 06:27:57;;;;;;;8.60;3.20;;;16.60;98.20;;;;;;5029251;28;20527;-69
2022/07/26 06:30:23;;;;;;;8.60;2.65;;;16.70;98.10;;;;;;5030865;28;20033;-69
2022/07/26 06:32:48;;;;;;;8.85;2.45;;;16.80;98.00;;;;;;5027437;28;20029;-69
2022/07/26 06:35:14;;;;;;;8.55;3.08;;;16.80;97.60;;;;;;5028935;28;20373;-69
2022/07/26 06:37:41;;;;;;;7.85;2.60;;;16.80;97.70;;;;;;5028782;28;20041;-70
2022/07/26 06:40:08;;;;;;;7.40;2.25;;;16.80;97.30;;;;;;5030237;28;20041;-69
2022/07/26 06:42:34;;;;;;;7.45;2.45;;;16.90;97.50;;;;;;5026696;28;20086;-69
2022/07/26 06:45:00;;;;;;;6.65;2.60;;;16.90;97.40;;;;;;5029753;28;20104;-69
2022/07/26 06:47:26;;;;;;;10.80;2.78;;;16.90;97.10;;;;;;5017851;28;20041;-69
2022/07/26 06:49:52;;;;;;;7.65;2.33;;;16.80;97.10;;;;;;5020476;28;20021;-69
2022/07/26 06:52:17;;;;;;;7.75;1.98;;;16.80;97.20;;;;;;5032480;28;20129;-69
2022/07/26 06:54:43;;;;;;;7.28;2.05;;;16.70;96.90;;;;;;5032123;28;20029;-69
2022/07/26 06:57:09;;;;;;;5.68;2.20;;;16.70;96.60;;;;;;5032927;28;20030;-69
2022/07/26 06:59:34;;;;;;;6.95;2.20;;;16.80;96.60;;;;;;5031790;28;20472;-70
2022/07/26 07:02:00;;;;;;;7.47;1.75;;;17.10;96.60;;;;;;5031973;28;20040;-70
2022/07/26 07:04:28;;;;;;;6.97;1.85;;;17.20;96.00;;;;;;5033188;28;20017;-69
2022/07/26 07:06:53;;;;;;;7.47;1.50;;;17.40;96.00;;;;;;5032978;28;20519;-72
2022/07/26 07:09:19;;;;;;;4.20;1.38;;;17.20;94.90;;;;;;5032832;28;20017;-70
2022/07/26 07:11:44;;;;;;;4.18;1.25;;;17.10;94.50;;;;;;5030752;28;20567;-69
2022/07/26 07:14:10;;;;;;;3.03;0.80;;;17.10;94.60;;;;;;5033065;28;20067;-70
2022/07/26 07:16:35;;;;;;;4.85;1.00;;;16.80;94.00;;;;;;5030398;28;20044;-70
2022/07/26 07:19:01;;;;;;;2.50;0.75;;;16.50;94.10;;;;;;5032579;28;20037;-70
2022/07/26 07:21:26;;;;;;;7.45;0.90;;;16.50;93.90;;;;;;5033264;28;20037;-70
2022/07/26 07:23:52;;;;;;;2.70;0.80;;;16.70;94.10;;;;;;5030934;28;20033;-70
2022/07/26 07:26:18;;;;;;;5.05;0.77;;;17.10;94.40;;;;;;5026162;28;20030;-69
2022/07/26 07:28:44;;;;;;;2.90;0.73;;;17.00;93.40;;;;;;5033235;28;20112;-70
2022/07/26 07:31:10;;;;;;;2.97;0.68;;;17.10;92.90;;;;;;5032978;28;20108;-69
2022/07/26 07:33:35;;;;;;;4.75;0.70;;;17.20;93.00;;;;;;5028814;28;20412;-69
2022/07/26 07:36:01;;;;;;;1.73;0.63;;;17.20;92.30;;;;;;5032567;28;20196;-69
2022/07/26 07:38:26;;;;;;;5.80;1.25;;;17.30;91.70;;;;;;5032845;28;20071;-69
2022/07/26 07:40:52;;;;;;;3.72;0.77;;;17.20;91.40;;;;;;5030889;28;20034;-70
2022/07/26 07:43:17;;;;;;;5.15;1.15;;;17.30;92.20;;;;;;5032809;28;20398;-70
2022/07/26 07:45:43;;;;;;;4.25;0.82;;;17.40;91.60;;;;;;5033365;28;20032;-70
2022/07/26 07:48:08;;;;;;;2.40;0.60;;;17.50;91.80;;;;;;5030605;28;20036;-70
2022/07/26 07:50:34;;;;;;;2.13;0.57;;;17.70;92.30;;;;;;5030547;28;20731;-69
2022/07/26 07:52:59;;;;;;;2.40;0.60;;;17.70;91.00;;;;;;5031801;28;20029;-70
2022/07/26 07:55:25;;;;;;;1.55;0.70;;;17.70;91.10;;;;;;5031889;28;20389;-70
2022/07/26 07:57:50;;;;;;;4.05;0.93;;;17.70;89.40;;;;;;5031329;28;20045;-70
2022/07/26 08:00:18;;;;;;;6.22;0.47;;;17.60;90.70;;;;;;5032281;28;20026;-70
2022/07/26 08:02:44;;;;;;;2.40;0.63;;;17.40;89.70;;;;;;5030331;28;20128;-69
2022/07/26 08:05:10;;;;;;;4.07;0.50;;;17.30;89.40;;;;;;5032538;28;20075;-70
2022/07/26 08:07:35;;;;;;;2.05;0.30;;;17.50;88.90;;;;;;5030045;28;20111;-69
2022/07/26 08:10:00;;;;;;;4.47;0.50;;;17.90;88.40;;;;;;5033205;28;20026;-70
2022/07/26 08:12:26;;;;;;;2.70;0.70;;;17.80;85.90;;;;;;5031867;28;20128;-69
2022/07/26 08:14:51;;;;;;;1.77;0.40;;;17.90;85.90;;;;;;5031894;28;20029;-70
2022/07/26 08:17:17;;;;;;;0.80;0.45;;;18.10;86.60;;;;;;5029128;28;20079;-69
2022/07/26 08:19:42;;;;;;;2.65;0.28;;;18.00;84.00;;;;;;5032725;28;20101;-70
2022/07/26 08:22:08;;;;;;;4.70;0.80;;;18.00;84.10;;;;;;5030462;28;20051;-70
2022/07/26 08:24:34;;;;;;;3.00;0.60;;;17.80;83.20;;;;;;5031338;28;20025;-69
2022/07/26 08:26:59;;;;;;;4.55;0.68;;;17.80;85.30;;;;;;5025178;28;20018;-70
2022/07/26 08:29:25;;;;;;;3.40;0.60;;;17.90;85.10;;;;;;5031112;28;20075;-69
2022/07/26 08:31:51;;;;;;;2.75;0.50;;;17.90;85.10;;;;;;5030303;28;20481;-69
2022/07/26 08:34:17;;;;;;;4.35;0.82;;;18.00;85.60;;;;;;5018048;28;20080;-70
2022/07/26 08:36:43;;;;;;;3.15;0.52;;;18.20;85.60;;;;;;5028885;28;20057;-69
2022/07/26 08:39:08;;;;;;;4.75;0.82;;;18.50;84.20;;;;;;5031426;28;20104;-70
2022/07/26 08:41:35;;;;;;;3.97;0.40;;;18.40;84.20;;;;;;5020961;28;20049;-70
2022/07/26 08:44:08;;;;;;;2.63;0.70;;;18.30;84.10;;;;;;5023070;28;20037;-70
2022/07/26 08:46:36;;;;;;;5.00;0.80;;;18.10;83.80;;;;;;5023507;28;20042;-70
2022/07/26 08:49:04;;;;;;;4.65;0.70;;;18.30;84.30;;;;;;5024181;28;20060;-69
2022/07/26 08:51:30;;;;;;;2.60;0.50;;;18.10;83.50;;;;;;5034497;28;20155;-69
2022/07/26 08:53:58;;;;;;;6.15;0.65;;;18.20;85.20;;;;;;5026914;28;20112;-69
2022/07/26 08:56:23;;;;;;;4.43;0.70;;;18.00;84.80;;;;;;5019759;28;20451;-69
2022/07/26 08:58:49;;;;;;;3.03;0.70;;;18.00;83.90;;;;;;5021027;28;20113;-69
2022/07/26 09:01:14;;;;;;;2.33;0.30;;;17.80;84.70;;;;;;5018900;28;20112;-69
2022/07/26 09:03:44;;;;;;;1.75;0.50;;;18.20;83.80;;;;;;5026356;28;20025;-69
2022/07/26 09:06:21;;;;;;;3.50;0.50;;;18.60;81.10;;;;;;5025829;28;20401;-69
2022/07/26 09:08:49;;;;;;;2.08;0.43;;;19.00;79.90;;;;;;5021848;28;20037;-69
2022/07/26 09:11:25;;;;;;;2.65;0.43;;;19.50;79.00;;;;;;5028725;28;20087;-69
2022/07/26 09:13:56;;;;;;;1.52;0.32;;;19.30;76.10;;;;;;5027716;28;20072;-69
2022/07/26 09:16:22;;;;;;;4.72;0.50;;;19.30;74.80;;;;;;5022018;28;20025;-69
2022/07/26 09:18:48;;;;;;;1.95;0.40;;;20.00;76.00;;;;;;5020741;28;20030;-70
2022/07/26 09:21:32;;;;;;;3.42;0.52;;;20.00;74.20;;;;;;5030831;28;20532;-70
2022/07/26 09:23:58;;;;;;;2.47;0.55;;;19.60;72.60;;;;;;5022648;28;20036;-70
2022/07/26 09:26:24;;;;;;;2.92;0.70;;;19.80;73.00;;;;;;5025924;28;20026;-69
2022/07/26 09:29:11;;;;;;;2.28;0.30;;;20.00;73.90;;;;;;5029693;28;20370;-70
2022/07/26 09:31:38;;;;;;;2.13;0.50;;;20.00;72.90;;;;;;5029210;28;20037;-69
2022/07/26 09:34:05;;;;;;;1.20;0.60;;;19.00;78.30;;;;;;5027775;28;20501;-69
2022/07/26 09:36:31;;;;;;;1.88;0.40;;;18.10;79.50;;;;;;5017654;28;20041;-69
2022/07/26 09:39:00;;;;;;;5.43;0.85;;;17.90;81.40;;;;;;5029993;28;20070;-69
2022/07/26 09:41:36;;;;;;;2.10;0.65;;;17.50;81.90;;;;;;5027709;28;20067;-69
2022/07/26 09:44:17;;;;;;;3.72;0.57;;;18.00;80.60;;;;;;5024699;28;20521;-69
2022/07/26 09:46:55;;;;;;;3.75;0.77;;;18.30;80.00;;;;;;5027028;28;20448;-69
2022/07/26 09:49:22;;;;;;;5.85;0.98;;;18.80;80.00;;;;;;5028885;28;20026;-69
2022/07/26 09:51:51;;;;;;;3.60;0.50;;;19.30;79.70;;;;;;5023904;28;20072;-69
2022/07/26 09:54:19;;;;;;;4.22;0.70;;;19.00;77.90;;;;;;5024285;28;20025;-69
2022/07/26 09:56:50;;;;;;;5.18;0.85;;;19.20;76.40;;;;;;5023930;28;20672;-69
2022/07/26 09:59:18;;;;;;;3.75;0.70;;;19.10;77.20;;;;;;5014650;28;20445;-69
2022/07/26 10:01:45;;;;;;;6.78;0.88;;;20.00;76.40;;;;;;5022159;28;20721;-70
2022/07/26 10:04:11;;;;;;;2.45;0.80;;;19.90;76.50;;;;;;5025623;28;20033;-69
2022/07/26 10:06:39;;;;;;;3.47;0.70;;;19.40;76.20;;;;;;5025801;28;20496;-69
2022/07/26 10:09:05;;;;;;;4.55;0.70;;;19.30;76.60;;;;;;5023370;28;20060;-69
2022/07/26 10:11:40;;;;;;;5.28;0.80;;;19.40;72.30;;;;;;5026648;28;20033;-69
2022/07/26 10:14:37;;;;;;;1.75;0.50;;;19.70;69.90;;;;;;5016312;28;20373;-69
2022/07/26 10:17:27;;;;;;;1.95;0.30;;;19.80;68.50;;;;;;5021114;28;20045;-70
2022/07/26 10:19:57;;;;;;;1.67;0.37;;;20.20;69.60;;;;;;5025119;28;20032;-70
2022/07/26 10:22:23;;;;;;;2.08;0.30;;;20.00;68.10;;;;;;5026321;28;20040;-69
2022/07/26 10:24:50;;;;;;;1.75;0.45;;;20.10;66.80;;;;;;5027345;28;20029;-69
2022/07/26 10:27:35;;;;;;;2.10;0.40;;;20.60;66.00;;;;;;5028441;28;20026;-70
2022/07/26 10:30:16;;;;;;;4.13;0.50;;;20.70;65.40;;;;;;5022141;28;20025;-70
2022/07/26 10:32:50;;;;;;;2.67;0.40;;;20.70;65.00;;;;;;5024741;28;20121;-70
2022/07/26 10:35:39;;;;;;;3.03;0.50;;;20.50;65.40;;;;;;5032055;28;20028;-70
2022/07/26 10:38:10;;;;;;;2.58;0.40;;;19.90;67.10;;;;;;5023787;28;20064;-70
2022/07/26 10:40:37;;;;;;;0.85;0.13;;;19.30;68.00;;;;;;5026532;28;20026;-69
2022/07/26 10:43:16;;;;;;;2.92;0.52;;;19.00;69.20;;;;;;5023896;28;20033;-69
2022/07/26 10:45:43;;;;;;;2.30;0.45;;;19.10;69.10;;;;;;5020748;28;20044;-70
2022/07/26 10:48:11;;;;;;;2.13;0.40;;;19.40;69.00;;;;;;5015464;28;20482;-69
2022/07/26 10:50:37;;;;;;;0.70;0.38;;;19.60;65.20;;;;;;5026762;28;20032;-69
2022/07/26 10:53:03;;;;;;;2.65;0.68;;;19.90;66.60;;;;;;5025739;28;20025;-69
2022/07/26 10:55:29;;;;;;;2.08;0.40;;;20.10;65.40;;;;;;5020130;28;20060;-68
2022/07/26 10:57:54;;;;;;;2.78;0.55;;;20.50;65.20;;;;;;5025214;28;20485;-69
2022/07/26 11:00:24;;;;;;;1.50;0.30;;;20.30;62.50;;;;;;5024895;28;20076;-71
2022/07/26 11:02:57;;;;;;;1.63;0.33;;;20.70;63.70;;;;;;5026109;28;20029;-71
2022/07/26 11:05:29;;;;;;;2.80;0.55;;;21.30;63.10;;;;;;5022463;28;20025;-72
2022/07/26 11:08:03;;;;;;;1.02;0.30;;;20.90;63.00;;;;;;5026348;28;20030;-71
2022/07/26 11:10:35;;;;;;;2.95;0.57;;;20.60;63.30;;;;;;5019036;28;20029;-71
2022/07/26 11:13:16;;;;;;;2.65;0.50;;;21.10;62.20;;;;;;5027786;28;20033;-71
2022/07/26 11:15:59;;;;;;;3.03;0.40;;;21.50;60.60;;;;;;5022125;28;20049;-74
2022/07/26 11:18:31;;;;;;;2.20;0.40;;;21.50;60.80;;;;;;5024680;28;20316;-72
2022/07/26 11:21:07;;;;;;;3.42;0.77;;;20.50;60.00;;;;;;5027796;28;20048;-71
2022/07/26 11:23:35;;;;;;;2.53;0.82;;;20.60;62.70;;;;;;5023687;28;20040;-71
2022/07/26 11:26:16;;;;;;;2.33;0.65;;;20.90;61.50;;;;;;5022358;28;20270;-71
2022/07/26 11:29:00;;;;;;;1.80;0.50;;;20.70;60.80;;;;;;5024583;28;20021;-71
2022/07/26 11:31:36;;;;;;;1.90;0.57;;;20.70;61.20;;;;;;5027335;28;20030;-71
2022/07/26 11:34:03;;;;;;;2.10;0.40;;;20.70;62.60;;;;;;5020587;28;20446;-71
2022/07/26 11:36:34;;;;;;;5.05;0.70;;;20.80;61.70;;;;;;5025190;28;20067;-71
2022/07/26 11:39:01;;;;;;;3.33;0.73;;;20.50;63.10;;;;;;5027890;28;20033;-71
2022/07/26 11:41:29;;;;;;;4.03;0.85;;;20.50;63.00;;;;;;5028446;28;20064;-71
2022/07/26 11:43:55;;;;;;;3.58;0.68;;;19.90;63.00;;;;;;5030939;28;20030;-71
2022/07/26 11:46:22;;;;;;;2.38;0.80;;;19.70;63.40;;;;;;5029918;28;20036;-70
2022/07/26 11:48:52;;;;;;;5.70;1.02;;;19.70;65.30;;;;;;5026928;28;20084;-71
2022/07/26 11:51:23;;;;;;;3.42;0.82;;;19.60;66.40;;;;;;5024168;28;20022;-71
2022/07/26 11:53:50;;;;;;;;;;;19.30;67.50;;;;;;5029582;28;20026;-71
2022/07/26 11:56:21;;;;;;;3.85;0.80;;;19.70;66.60;;;;;;5031497;28;20295;-70
2022/07/26 11:58:49;;;;;;;4.90;1.00;;;19.70;64.40;;;;;;5027528;28;20037;-71
2022/07/26 12:01:19;;;;;;;6.45;0.90;;;19.50;65.20;;;;;;5029219;28;20030;-71
2022/07/26 12:03:47;;;;;;;3.65;0.90;;;20.60;63.00;;;;;;5027538;28;20113;-71
2022/07/26 12:06:18;;;;;;;6.07;1.08;;;21.60;60.50;;;;;;5029017;28;20386;-71
2022/07/26 12:08:53;;;;;;;4.57;0.80;;;21.60;60.60;;;;;;5026263;28;20445;-72
2022/07/26 12:11:20;;;;;;;4.93;0.85;;;22.00;57.80;;;;;;5026555;28;20033;-71
2022/07/26 12:14:00;;;;;;;4.45;0.90;;;22.50;55.00;;;;;;5027822;28;20026;-72
2022/07/26 12:16:41;;;;;;;3.80;0.85;;;22.00;55.40;;;;;;5021840;28;20024;-71
2022/07/26 12:19:08;;;;;;;;;;;21.10;57.90;;;;;;5026927;28;20134;-71
2022/07/26 12:21:55;;;;;;;3.92;1.20;;;21.20;58.30;;;;;;5026102;28;19955;-73
2022/07/26 12:24:33;;;;;;;3.65;0.93;;;20.50;59.20;;;;;;5025626;28;20030;-71
2022/07/26 12:27:12;;;;;;;5.13;1.00;;;20.00;61.70;;;;;;5029907;28;20056;-71
2022/07/26 12:29:39;;;;;;;4.30;1.00;;;20.60;59.50;;;;;;5027945;28;20075;-71
2022/07/26 12:32:08;;;;;;;7.07;1.23;;;20.60;58.70;;;;;;5028253;28;20420;-71
2022/07/26 12:34:35;;;;;;;6.32;0.80;;;21.50;56.90;;;;;;5026706;28;20026;-71
2022/07/26 12:37:12;;;;;;;6.32;1.20;;;22.10;55.00;;;;;;5027865;28;20111;-72
2022/07/26 12:39:38;;;;;;;6.22;1.10;;;21.20;58.10;;;;;;5028029;28;20057;-72
2022/07/26 12:42:31;;;;;;;5.35;1.30;;;20.50;60.60;;;;;;5030040;28;20100;-72
2022/07/26 12:44:57;;;;;;;5.85;1.23;;;20.00;61.10;;;;;;5029717;28;20034;-72
2022/07/26 12:47:24;;;;;;;6.95;1.50;;;19.80;60.80;;;;;;5029537;28;20021;-72
2022/07/26 12:49:50;;;;;;;7.43;1.10;;;20.20;60.00;;;;;;5025358;28;20040;-71
2022/07/26 12:52:17;;;;;;;8.35;1.35;;;20.30;59.70;;;;;;5025836;28;20461;-71